createdAt,value
2023-05-21T00:00:00.802Z,20.0877
2023-05-21T00:01:02.649Z,20.0955
2023-05-21T00:02:04.474Z,20.0951
2023-05-21T00:03:06.445Z,20.0868
2023-05-21T00:04:08.165Z,20.0497
2023-05-21T00:05:11.082Z,20.0540
2023-05-21T00:06:11.866Z,20.0827
2023-05-21T00:07:13.642Z,20.0875
2023-05-21T00:08:15.564Z,20.0801
2023-05-21T00:09:17.322Z,20.0757
2023-05-21T00:10:19.163Z,20.0747
2023-05-21T00:11:21.008Z,20.0669
2023-05-21T00:12:22.829Z,20.0694
2023-05-21T00:13:24.654Z,20.0815
2023-05-21T00:14:26.481Z,20.1018
2023-05-21T00:15:28.333Z,20.1037
2023-05-21T00:16:30.274Z,20.1014
2023-05-21T00:17:32.029Z,20.0829
2023-05-21T00:18:33.838Z,20.0838
2023-05-21T00:19:35.642Z,20.0774
2023-05-21T00:20:37.477Z,20.0856
2023-05-21T00:21:39.323Z,20.0663
2023-05-21T00:22:41.184Z,20.0552
2023-05-21T00:23:42.994Z,20.0503
2023-05-21T00:24:44.847Z,20.0673
2023-05-21T00:25:46.650Z,20.0922
2023-05-21T00:26:48.516Z,20.0914
2023-05-21T00:27:50.320Z,20.1018
2023-05-21T00:28:52.170Z,20.1043
2023-05-21T00:29:54.028Z,20.1004
2023-05-21T00:30:55.832Z,20.0879
2023-05-21T00:31:57.713Z,20.0702
2023-05-21T00:32:59.510Z,20.0595
2023-05-21T00:34:01.323Z,20.0536
2023-05-21T00:35:03.175Z,20.0640
2023-05-21T00:36:05.024Z,20.0868
2023-05-21T00:37:06.836Z,20.0957
2023-05-21T00:38:08.695Z,20.1006
2023-05-21T00:39:10.486Z,20.0916
2023-05-21T00:40:12.312Z,20.0622
2023-05-21T00:41:14.163Z,20.0379
2023-05-21T00:42:16.048Z,20.0441
2023-05-21T00:43:17.819Z,20.0400
2023-05-21T00:44:19.723Z,20.0359
2023-05-21T00:45:21.493Z,20.0513
2023-05-21T00:46:23.357Z,20.0646
2023-05-21T00:47:25.190Z,20.0688
2023-05-21T00:48:27.006Z,20.0398
2023-05-21T00:49:28.804Z,20.0513
2023-05-21T00:50:30.634Z,20.0655
2023-05-21T00:51:32.481Z,20.0743
2023-05-21T00:52:34.323Z,20.0653
2023-05-21T00:53:36.136Z,20.1076
2023-05-21T00:54:37.971Z,20.1152
2023-05-21T00:55:39.792Z,20.1244
2023-05-21T00:56:41.658Z,20.1111
2023-05-21T00:57:43.472Z,20.1137
2023-05-21T00:58:45.293Z,20.1285
2023-05-21T00:59:47.149Z,20.1170
2023-05-21T01:00:48.973Z,20.1037
2023-05-21T01:01:50.809Z,20.0983
2023-05-21T01:02:52.691Z,20.1004
2023-05-21T01:03:54.468Z,20.0996
2023-05-21T01:04:56.328Z,20.0688
2023-05-21T01:05:58.114Z,20.0681
2023-05-21T01:06:59.963Z,20.0840
2023-05-21T01:08:01.828Z,20.0946
2023-05-21T01:09:04.957Z,20.0620
2023-05-21T01:10:05.553Z,20.0870
2023-05-21T01:11:07.304Z,20.0955
2023-05-21T01:12:09.128Z,20.1076
2023-05-21T01:13:10.988Z,20.1154
2023-05-21T01:14:12.874Z,20.1215
2023-05-21T01:15:14.641Z,20.1115
2023-05-21T01:16:16.523Z,20.0961
2023-05-21T01:17:18.380Z,20.0733
2023-05-21T01:18:20.203Z,20.0686
2023-05-21T01:19:22.045Z,20.0936
2023-05-21T01:20:23.836Z,20.1043
2023-05-21T01:21:25.654Z,20.1168
2023-05-21T01:22:27.508Z,20.1008
2023-05-21T01:23:29.377Z,20.1144
2023-05-21T01:24:31.167Z,20.1250
2023-05-21T01:25:33.007Z,20.1357
2023-05-21T01:26:34.847Z,20.1396
2023-05-21T01:27:36.683Z,20.1308
2023-05-21T01:28:38.539Z,20.1197
2023-05-21T01:29:40.338Z,20.1068
2023-05-21T01:30:42.186Z,20.0846
2023-05-21T01:31:44.022Z,20.0671
2023-05-21T01:32:45.878Z,20.0599
2023-05-21T01:33:47.738Z,20.0821
2023-05-21T01:34:49.555Z,20.0870
2023-05-21T01:35:51.378Z,20.0737
2023-05-21T01:36:53.190Z,20.0390
2023-05-21T01:37:55.036Z,20.0281
2023-05-21T01:38:56.869Z,20.0266
2023-05-21T01:39:58.702Z,20.0579
2023-05-21T01:41:00.560Z,20.0706
2023-05-21T01:42:02.377Z,20.0877
2023-05-21T01:43:04.189Z,20.1053
2023-05-21T01:44:06.069Z,20.1123
2023-05-21T01:45:07.873Z,20.0897
2023-05-21T01:46:09.709Z,20.0593
2023-05-21T01:47:11.586Z,20.0324
2023-05-21T01:48:13.413Z,20.0059
2023-05-21T01:49:15.208Z,20.0367
2023-05-21T01:50:17.039Z,20.0632
2023-05-21T01:51:18.888Z,20.0562
2023-05-21T01:52:20.712Z,20.0478
2023-05-21T01:53:22.548Z,20.0661
2023-05-21T01:54:24.412Z,20.0669
2023-05-21T01:55:26.233Z,20.0644
2023-05-21T01:56:28.039Z,20.0605
2023-05-21T01:57:29.942Z,20.0571
2023-05-21T01:58:31.723Z,20.0720
2023-05-21T01:59:33.547Z,20.0419
2023-05-21T02:00:35.396Z,20.0542
2023-05-21T02:01:37.301Z,20.0402
2023-05-21T02:02:39.084Z,20.0474
2023-05-21T02:03:41.084Z,20.0577
2023-05-21T02:04:42.726Z,20.0482
2023-05-21T02:05:44.555Z,20.0704
2023-05-21T02:06:46.396Z,20.0860
2023-05-21T02:07:48.221Z,20.0895
2023-05-21T02:08:50.042Z,20.1029
2023-05-21T02:09:51.895Z,20.1020
2023-05-21T02:11:01.288Z,20.0895
2023-05-21T02:11:55.555Z,20.0424
2023-05-21T02:12:57.408Z,20.0552
2023-05-21T02:13:59.228Z,20.0649
2023-05-21T02:15:01.086Z,20.0550
2023-05-21T02:16:02.934Z,20.0681
2023-05-21T02:17:04.781Z,20.0835
2023-05-21T02:18:06.623Z,20.0998
2023-05-21T02:19:08.451Z,20.0987
2023-05-21T02:20:10.276Z,20.1063
2023-05-21T02:21:12.089Z,20.1203
2023-05-21T02:22:13.969Z,20.1261
2023-05-21T02:23:15.790Z,20.1316
2023-05-21T02:24:17.608Z,20.1193
2023-05-21T02:25:19.462Z,20.1193
2023-05-21T02:26:21.257Z,20.1255
2023-05-21T02:27:23.108Z,20.1103
2023-05-21T02:28:24.973Z,20.0916
2023-05-21T02:29:26.812Z,20.0864
2023-05-21T02:30:28.688Z,20.0942
2023-05-21T02:31:30.428Z,20.1047
2023-05-21T02:32:32.343Z,20.0994
2023-05-21T02:33:34.169Z,20.1098
2023-05-21T02:34:35.942Z,20.1154
2023-05-21T02:35:37.990Z,20.0916
2023-05-21T02:36:39.635Z,20.1113
2023-05-21T02:37:41.454Z,20.1341
2023-05-21T02:38:43.293Z,20.1483
2023-05-21T02:39:45.115Z,20.1337
2023-05-21T02:40:54.434Z,20.1425
2023-05-21T02:41:48.774Z,20.1241
2023-05-21T02:42:50.599Z,20.1269
2023-05-21T02:43:52.470Z,20.1489
2023-05-21T02:44:54.279Z,20.1530
2023-05-21T02:45:56.146Z,20.1522
2023-05-21T02:46:57.927Z,20.1534
2023-05-21T02:47:59.863Z,20.1304
2023-05-21T02:49:01.609Z,20.1298
2023-05-21T02:50:03.442Z,20.1353
2023-05-21T02:51:05.259Z,20.1337
2023-05-21T02:52:07.145Z,20.1076
2023-05-21T02:53:08.936Z,20.0936
2023-05-21T02:54:10.756Z,20.1020
2023-05-21T02:55:12.624Z,20.1100
2023-05-21T02:56:14.452Z,20.1133
2023-05-21T02:57:16.323Z,20.1339
2023-05-21T02:58:18.091Z,20.1534
2023-05-21T02:59:19.954Z,20.1573
2023-05-21T03:00:21.762Z,20.1419
2023-05-21T03:01:23.714Z,20.1495
2023-05-21T03:02:25.558Z,20.1552
2023-05-21T03:03:27.460Z,20.1429
2023-05-21T03:04:29.113Z,20.1337
2023-05-21T03:05:30.938Z,20.1501
2023-05-21T03:06:32.775Z,20.1632
2023-05-21T03:07:34.635Z,20.1604
2023-05-21T03:08:36.477Z,20.1624
2023-05-21T03:09:38.289Z,20.1392
2023-05-21T03:10:40.126Z,20.1250
2023-05-21T03:11:41.989Z,20.1275
2023-05-21T03:12:43.776Z,20.1281
2023-05-21T03:13:45.653Z,20.1351
2023-05-21T03:14:47.464Z,20.1402
2023-05-21T03:15:49.290Z,20.1322
2023-05-21T03:16:51.152Z,20.1088
2023-05-21T03:17:53.004Z,20.0866
2023-05-21T03:18:54.825Z,20.1049
2023-05-21T03:19:56.653Z,20.1335
2023-05-21T03:20:58.474Z,20.1390
2023-05-21T03:22:00.298Z,20.1573
2023-05-21T03:23:02.138Z,20.1614
2023-05-21T03:24:03.972Z,20.1589
2023-05-21T03:25:05.798Z,20.1394
2023-05-21T03:26:07.626Z,20.1415
2023-05-21T03:27:09.472Z,20.1390
2023-05-21T03:28:11.302Z,20.1542
2023-05-21T03:29:13.203Z,20.1645
2023-05-21T03:30:15.056Z,20.1507
2023-05-21T03:31:16.885Z,20.1472
2023-05-21T03:32:18.771Z,20.1497
2023-05-21T03:33:20.546Z,20.1507
2023-05-21T03:34:22.371Z,20.1598
2023-05-21T03:35:24.201Z,20.1439
2023-05-21T03:36:26.047Z,20.1055
2023-05-21T03:37:27.883Z,20.1154
2023-05-21T03:38:29.708Z,20.1051
2023-05-21T03:39:31.541Z,20.1070
2023-05-21T03:40:33.378Z,20.1002
2023-05-21T03:41:35.227Z,20.0959
2023-05-21T03:42:37.061Z,20.0903
2023-05-21T03:43:46.413Z,20.1059
2023-05-21T03:44:40.746Z,20.1099
2023-05-21T03:45:44.272Z,20.1111
2023-05-21T03:46:44.414Z,20.1139
2023-05-21T03:47:46.266Z,20.0992
2023-05-21T03:48:48.066Z,20.0901
2023-05-21T03:49:49.917Z,20.1053
2023-05-21T03:50:51.788Z,20.0977
2023-05-21T03:51:53.576Z,20.1037
2023-05-21T03:52:55.407Z,20.1061
2023-05-21T03:53:57.256Z,20.1092
2023-05-21T03:54:59.096Z,20.1092
2023-05-21T03:56:00.931Z,20.1209
2023-05-21T03:57:02.800Z,20.1010
2023-05-21T03:58:04.611Z,20.0944
2023-05-21T03:59:06.437Z,20.1018
2023-05-21T04:00:08.295Z,20.0963
2023-05-21T04:01:10.119Z,20.1187
2023-05-21T04:02:11.977Z,20.0803
2023-05-21T04:03:13.846Z,20.0632
2023-05-21T04:04:15.730Z,20.0336
2023-05-21T04:05:17.461Z,20.0213
2023-05-21T04:06:19.314Z,20.0293
2023-05-21T04:07:21.128Z,20.0482
2023-05-21T04:08:23.002Z,20.0343
2023-05-21T04:09:24.825Z,20.0277
2023-05-21T04:10:26.640Z,20.0318
2023-05-21T04:11:28.487Z,20.0369
2023-05-21T04:12:30.306Z,20.0712
2023-05-21T04:13:32.146Z,20.0868
2023-05-21T04:14:34.015Z,20.1072
2023-05-21T04:15:36.132Z,20.1125
2023-05-21T04:16:37.917Z,20.1020
2023-05-21T04:17:39.556Z,20.1142
2023-05-21T04:18:42.450Z,20.0932
2023-05-21T04:19:43.163Z,20.0887
2023-05-21T04:20:44.999Z,20.0782
2023-05-21T04:21:46.829Z,20.0546
2023-05-21T04:22:48.669Z,20.0564
2023-05-21T04:23:50.489Z,20.0788
2023-05-21T04:24:52.337Z,20.0907
2023-05-21T04:25:54.174Z,20.1113
2023-05-21T04:26:56.009Z,20.1189
2023-05-21T04:27:57.858Z,20.1259
2023-05-21T04:28:59.682Z,20.1337
2023-05-21T04:30:01.511Z,20.1168
2023-05-21T04:31:03.388Z,20.1168
2023-05-21T04:32:05.186Z,20.1109
2023-05-21T04:33:07.043Z,20.1082
2023-05-21T04:34:08.842Z,20.1094
2023-05-21T04:35:10.664Z,20.0911
2023-05-21T04:36:12.512Z,20.0780
2023-05-21T04:37:14.316Z,20.0946
2023-05-21T04:38:16.150Z,20.0776
2023-05-21T04:39:17.986Z,20.0854
2023-05-21T04:40:19.821Z,20.0809
2023-05-21T04:41:21.649Z,20.0946
2023-05-21T04:42:23.471Z,20.1092
2023-05-21T04:43:25.330Z,20.1049
2023-05-21T04:44:27.179Z,20.1031
2023-05-21T04:45:28.985Z,20.1026
2023-05-21T04:46:40.295Z,20.1228
2023-05-21T04:47:31.340Z,20.1232
2023-05-21T04:48:32.897Z,20.1234
2023-05-21T04:49:34.488Z,20.1310
2023-05-21T04:50:36.018Z,20.1546
2023-05-21T04:51:37.562Z,20.1308
2023-05-21T04:52:39.160Z,20.1195
2023-05-21T04:53:40.685Z,20.1191
2023-05-21T04:54:42.238Z,20.1279
2023-05-21T04:55:43.793Z,20.1483
2023-05-21T04:56:45.365Z,20.1413
2023-05-21T04:57:46.924Z,20.1372
2023-05-21T04:58:48.487Z,20.1324
2023-05-21T04:59:50.055Z,20.1211
2023-05-21T05:00:51.859Z,20.1283
2023-05-21T05:01:53.568Z,20.1228
2023-05-21T05:02:55.489Z,20.1281
2023-05-21T05:03:57.412Z,20.1384
2023-05-21T05:04:59.105Z,20.1349
2023-05-21T05:06:00.929Z,20.1308
2023-05-21T05:07:02.765Z,20.1168
2023-05-21T05:08:04.576Z,20.1197
2023-05-21T05:09:06.419Z,20.1242
2023-05-21T05:10:08.260Z,20.1306
2023-05-21T05:11:10.075Z,20.1361
2023-05-21T05:12:11.907Z,20.1172
2023-05-21T05:13:13.776Z,20.1244
2023-05-21T05:14:15.568Z,20.1244
2023-05-21T05:15:17.445Z,20.1242
2023-05-21T05:16:19.292Z,20.1289
2023-05-21T05:17:21.084Z,20.0977
2023-05-21T05:18:22.952Z,20.0911
2023-05-21T05:19:24.819Z,20.1082
2023-05-21T05:20:26.605Z,20.1121
2023-05-21T05:21:28.432Z,20.1209
2023-05-21T05:22:30.254Z,20.1326
2023-05-21T05:23:32.102Z,20.1133
2023-05-21T05:24:33.948Z,20.1018
2023-05-21T05:25:35.983Z,20.1103
2023-05-21T05:26:37.625Z,20.1185
2023-05-21T05:27:39.442Z,20.1255
2023-05-21T05:28:41.259Z,20.1250
2023-05-21T05:29:43.091Z,20.1489
2023-05-21T05:30:44.989Z,20.1503
2023-05-21T05:31:46.769Z,20.1439
2023-05-21T05:32:48.632Z,20.1460
2023-05-21T05:33:50.421Z,20.1409
2023-05-21T05:34:52.277Z,20.1285
2023-05-21T05:35:54.099Z,20.1271
2023-05-21T05:36:55.933Z,20.1137
2023-05-21T05:37:57.749Z,20.1137
2023-05-21T05:38:59.585Z,20.1429
2023-05-21T05:40:01.416Z,20.1316
2023-05-21T05:41:11.347Z,20.1298
2023-05-21T05:42:05.101Z,20.1354
2023-05-21T05:43:06.941Z,20.1314
2023-05-21T05:44:10.820Z,20.1310
2023-05-21T05:45:10.580Z,20.1285
2023-05-21T05:46:12.484Z,20.1423
2023-05-21T05:47:14.277Z,20.1374
2023-05-21T05:48:16.094Z,20.1411
2023-05-21T05:49:25.441Z,20.1320
2023-05-21T05:50:19.743Z,20.1225
2023-05-21T05:51:21.647Z,20.1244
2023-05-21T05:52:23.430Z,20.1246
2023-05-21T05:53:25.265Z,20.1255
2023-05-21T05:54:27.096Z,20.1273
2023-05-21T05:55:28.921Z,20.1137
2023-05-21T05:56:30.774Z,20.1226
2023-05-21T05:57:32.579Z,20.1236
2023-05-21T05:58:34.432Z,20.1166
2023-05-21T05:59:36.254Z,20.1018
2023-05-21T06:00:38.114Z,20.0844
2023-05-21T06:01:39.961Z,20.0739
2023-05-21T06:02:41.792Z,20.0893
2023-05-21T06:03:43.731Z,20.1125
2023-05-21T06:04:45.450Z,20.0903
2023-05-21T06:05:47.319Z,20.0661
2023-05-21T06:06:49.122Z,20.0872
2023-05-21T06:07:50.964Z,20.1148
2023-05-21T06:08:52.785Z,20.1197
2023-05-21T06:09:54.599Z,20.1263
2023-05-21T06:10:56.449Z,20.1255
2023-05-21T06:11:58.269Z,20.1351
2023-05-21T06:13:00.135Z,20.1398
2023-05-21T06:14:01.929Z,20.1423
2023-05-21T06:15:03.762Z,20.1281
2023-05-21T06:16:05.629Z,20.1470
2023-05-21T06:17:07.452Z,20.1538
2023-05-21T06:18:09.324Z,20.1478
2023-05-21T06:19:11.185Z,20.1532
2023-05-21T06:20:12.933Z,20.1540
2023-05-21T06:21:14.779Z,20.1649
2023-05-21T06:22:16.591Z,20.1647
2023-05-21T06:23:18.438Z,20.1542
2023-05-21T06:24:20.272Z,20.1614
2023-05-21T06:25:22.139Z,20.1614
2023-05-21T06:26:23.953Z,20.1466
2023-05-21T06:27:25.858Z,20.1813
2023-05-21T06:28:27.586Z,20.1739
2023-05-21T06:29:29.447Z,20.1600
2023-05-21T06:30:31.273Z,20.1571
2023-05-21T06:31:33.175Z,20.1296
2023-05-21T06:32:34.975Z,20.1478
2023-05-21T06:33:36.880Z,20.1690
2023-05-21T06:34:38.615Z,20.1780
2023-05-21T06:35:40.456Z,20.1902
2023-05-21T06:36:42.265Z,20.1676
2023-05-21T06:37:44.100Z,20.1472
2023-05-21T06:38:45.936Z,20.1491
2023-05-21T06:39:47.780Z,20.1437
2023-05-21T06:40:49.605Z,20.1384
2023-05-21T06:41:51.451Z,20.1480
2023-05-21T06:42:53.278Z,20.1692
2023-05-21T06:43:55.094Z,20.1789
2023-05-21T06:44:56.946Z,20.2045
2023-05-21T06:45:58.811Z,20.2095
2023-05-21T06:47:00.607Z,20.2049
2023-05-21T06:48:02.503Z,20.1945
2023-05-21T06:49:04.274Z,20.1998
2023-05-21T06:50:06.094Z,20.2010
2023-05-21T06:51:07.946Z,20.1969
2023-05-21T06:52:17.298Z,20.2113
2023-05-21T06:53:11.624Z,20.2256
2023-05-21T06:54:13.440Z,20.2167
2023-05-21T06:55:15.276Z,20.1936
2023-05-21T06:56:17.135Z,20.1832
2023-05-21T06:57:18.950Z,20.1955
2023-05-21T06:58:20.798Z,20.2051
2023-05-21T06:59:22.654Z,20.1939
2023-05-21T07:00:24.448Z,20.1860
2023-05-21T07:01:26.334Z,20.1869
2023-05-21T07:02:28.186Z,20.1826
2023-05-21T07:03:30.072Z,20.2218
2023-05-21T07:04:31.794Z,20.2323
2023-05-21T07:05:33.631Z,20.2353
2023-05-21T07:06:35.460Z,20.2431
2023-05-21T07:07:37.275Z,20.2497
2023-05-21T07:08:39.138Z,20.2586
2023-05-21T07:09:40.943Z,20.2298
2023-05-21T07:10:42.804Z,20.2384
2023-05-21T07:11:44.627Z,20.2343
2023-05-21T07:12:46.480Z,20.2273
2023-05-21T07:13:48.286Z,20.2284
2023-05-21T07:14:50.114Z,20.2290
2023-05-21T07:15:51.964Z,20.2179
2023-05-21T07:16:53.849Z,20.2214
2023-05-21T07:17:55.628Z,20.2197
2023-05-21T07:18:57.514Z,20.2236
2023-05-21T07:19:59.269Z,20.2210
2023-05-21T07:21:01.107Z,20.2399
2023-05-21T07:22:02.966Z,20.2345
2023-05-21T07:23:04.785Z,20.2450
2023-05-21T07:24:06.629Z,20.2711
2023-05-21T07:25:08.441Z,20.2643
2023-05-21T07:26:10.287Z,20.2707
2023-05-21T07:27:24.855Z,20.2559
2023-05-21T07:28:14.943Z,20.2279
2023-05-21T07:29:15.789Z,20.2454
2023-05-21T07:30:17.618Z,20.2331
2023-05-21T07:31:19.477Z,20.2043
2023-05-21T07:32:21.389Z,20.1809
2023-05-21T07:33:23.167Z,20.1686
2023-05-21T07:34:25.038Z,20.1947
2023-05-21T07:35:26.812Z,20.1978
2023-05-21T07:36:28.641Z,20.1871
2023-05-21T07:37:30.547Z,20.2078
2023-05-21T07:38:32.300Z,20.2140
2023-05-21T07:39:34.160Z,20.1936
2023-05-21T07:40:35.995Z,20.1766
2023-05-21T07:41:37.827Z,20.1713
2023-05-21T07:42:39.654Z,20.1507
2023-05-21T07:43:41.489Z,20.1641
2023-05-21T07:44:43.514Z,20.1487
2023-05-21T07:45:45.172Z,20.1624
2023-05-21T07:46:47.058Z,20.1676
2023-05-21T07:47:48.874Z,20.1639
2023-05-21T07:48:50.675Z,20.1881
2023-05-21T07:49:52.489Z,20.1973
2023-05-21T07:50:54.312Z,20.2002
2023-05-21T07:51:56.171Z,20.1780
2023-05-21T07:52:58.040Z,20.1690
2023-05-21T07:54:07.327Z,20.1542
2023-05-21T07:55:01.688Z,20.1481
2023-05-21T07:56:03.492Z,20.1567
2023-05-21T07:57:05.366Z,20.1747
2023-05-21T07:58:07.175Z,20.1873
2023-05-21T07:59:08.988Z,20.1992
2023-05-21T08:00:10.850Z,20.1953
2023-05-21T08:01:12.648Z,20.1984
2023-05-21T08:02:14.487Z,20.2012
2023-05-21T08:03:16.570Z,20.1902
2023-05-21T08:04:18.226Z,20.1838
2023-05-21T08:05:19.984Z,20.1741
2023-05-21T08:06:21.805Z,20.1706
2023-05-21T08:07:23.651Z,20.1782
2023-05-21T08:08:25.474Z,20.1659
2023-05-21T08:09:27.321Z,20.1524
2023-05-21T08:10:29.157Z,20.1513
2023-05-21T08:11:30.969Z,20.1575
2023-05-21T08:12:32.815Z,20.1160
2023-05-21T08:13:34.622Z,20.1222
2023-05-21T08:14:36.471Z,20.1131
2023-05-21T08:15:38.514Z,20.0990
2023-05-21T08:16:40.284Z,20.0946
2023-05-21T08:17:42.043Z,20.0827
2023-05-21T08:18:43.842Z,20.0883
2023-05-21T08:19:45.665Z,20.0928
2023-05-21T08:20:47.504Z,20.0733
2023-05-21T08:21:51.343Z,20.0579
2023-05-21T08:22:51.162Z,20.0698
2023-05-21T08:23:53.006Z,20.0985
2023-05-21T08:24:54.811Z,20.1226
2023-05-21T08:25:56.670Z,20.1199
2023-05-21T08:26:58.513Z,20.0897
2023-05-21T08:28:00.311Z,20.0920
2023-05-21T08:29:02.163Z,20.0899
2023-05-21T08:30:03.984Z,20.1129
2023-05-21T08:31:05.822Z,20.1053
2023-05-21T08:32:07.788Z,20.1000
2023-05-21T08:33:09.527Z,20.0905
2023-05-21T08:34:11.321Z,20.0811
2023-05-21T08:35:13.182Z,20.0757
2023-05-21T08:36:15.141Z,20.0599
2023-05-21T08:37:16.805Z,20.0556
2023-05-21T08:38:18.653Z,20.0573
2023-05-21T08:39:20.490Z,20.0710
2023-05-21T08:40:22.325Z,20.0780
2023-05-21T08:41:24.160Z,20.0934
2023-05-21T08:42:36.385Z,20.1117
2023-05-21T08:43:30.953Z,20.1215
2023-05-21T08:44:31.480Z,20.1170
2023-05-21T08:45:33.048Z,20.1234
2023-05-21T08:46:34.649Z,20.0985
2023-05-21T08:47:36.251Z,20.0782
2023-05-21T08:48:37.695Z,20.0484
2023-05-21T08:49:46.754Z,20.0468
2023-05-21T08:50:40.824Z,20.0404
2023-05-21T08:51:42.488Z,20.0638
2023-05-21T08:52:44.326Z,20.0716
2023-05-21T08:53:46.130Z,20.0963
2023-05-21T08:54:47.949Z,20.0987
2023-05-21T08:55:51.697Z,20.0811
2023-05-21T08:56:59.427Z,20.0686
2023-05-21T08:57:53.454Z,20.0929
2023-05-21T08:58:55.367Z,20.1024
2023-05-21T08:59:57.126Z,20.0944
2023-05-21T09:00:59.008Z,20.1059
2023-05-21T09:02:00.858Z,20.1033
2023-05-21T09:03:02.672Z,20.0977
2023-05-21T09:04:18.957Z,20.0850
2023-05-21T09:05:08.338Z,20.0550
2023-05-21T09:06:08.892Z,20.0355
2023-05-21T09:07:10.502Z,20.0521
2023-05-21T09:08:12.019Z,20.0712
2023-05-21T09:09:13.645Z,20.0961
2023-05-21T09:10:15.480Z,20.0969
2023-05-21T09:11:17.309Z,20.0821
2023-05-21T09:12:19.166Z,20.0651
2023-05-21T09:13:20.995Z,20.0692
2023-05-21T09:14:22.848Z,20.0688
2023-05-21T09:15:24.659Z,20.0425
2023-05-21T09:16:26.498Z,20.0462
2023-05-21T09:17:28.333Z,20.0566
2023-05-21T09:18:30.134Z,20.0741
2023-05-21T09:19:32.044Z,20.0659
2023-05-21T09:20:33.842Z,20.0743
2023-05-21T09:21:35.646Z,20.0866
2023-05-21T09:22:37.489Z,20.0671
2023-05-21T09:23:39.313Z,20.0858
2023-05-21T09:24:41.158Z,20.0854
2023-05-21T09:25:42.973Z,20.0546
2023-05-21T09:26:44.815Z,20.0544
2023-05-21T09:27:46.660Z,20.0542
2023-05-21T09:28:48.497Z,20.0642
2023-05-21T09:29:50.335Z,20.0657
2023-05-21T09:30:52.158Z,20.0649
2023-05-21T09:31:54.105Z,20.0805
2023-05-21T09:32:55.914Z,20.0835
2023-05-21T09:33:57.668Z,20.1082
2023-05-21T09:34:59.496Z,20.0996
2023-05-21T09:36:01.323Z,20.0938
2023-05-21T09:37:04.990Z,20.1070
2023-05-21T09:38:05.015Z,20.1170
2023-05-21T09:39:06.832Z,20.1016
2023-05-21T09:40:08.660Z,20.1033
2023-05-21T09:41:10.500Z,20.1006
2023-05-21T09:42:12.338Z,20.1002
2023-05-21T09:43:14.184Z,20.1004
2023-05-21T09:44:16.023Z,20.1228
2023-05-21T09:45:17.876Z,20.1162
2023-05-21T09:46:19.718Z,20.1224
2023-05-21T09:47:21.578Z,20.1115
2023-05-21T09:48:23.359Z,20.1277
2023-05-21T09:49:25.246Z,20.1353
2023-05-21T09:50:27.016Z,20.1080
2023-05-21T09:51:28.872Z,20.1146
2023-05-21T09:52:30.718Z,20.1228
2023-05-21T09:53:32.546Z,20.1287
2023-05-21T09:54:34.379Z,20.1600
2023-05-21T09:55:36.213Z,20.1899
2023-05-21T09:56:38.056Z,20.1805
2023-05-21T09:57:39.870Z,20.1616
2023-05-21T09:58:41.732Z,20.1696
2023-05-21T09:59:51.084Z,20.1797
2023-05-21T10:00:45.637Z,20.2002
2023-05-21T10:01:47.294Z,20.2222
2023-05-21T10:02:49.125Z,20.2427
2023-05-21T10:03:50.934Z,20.2438
2023-05-21T10:04:52.764Z,20.2481
2023-05-21T10:05:54.588Z,20.2501
2023-05-21T10:06:56.403Z,20.2514
2023-05-21T10:07:58.246Z,20.2590
2023-05-21T10:09:00.842Z,20.2678
2023-05-21T10:10:01.935Z,20.2651
2023-05-21T10:11:03.758Z,20.2781
2023-05-21T10:12:05.596Z,20.3039
2023-05-21T10:13:07.441Z,20.3302
2023-05-21T10:14:09.299Z,20.3226
2023-05-21T10:15:11.106Z,20.3214
2023-05-21T10:16:12.978Z,20.3317
2023-05-21T10:17:14.761Z,20.3415
2023-05-21T10:18:16.619Z,20.3317
2023-05-21T10:19:18.495Z,20.3565
2023-05-21T10:20:20.270Z,20.3571
2023-05-21T10:21:22.090Z,20.3461
2023-05-21T10:22:23.934Z,20.3590
2023-05-21T10:23:25.772Z,20.4013
2023-05-21T10:24:27.619Z,20.4048
2023-05-21T10:25:29.421Z,20.4243
2023-05-21T10:26:31.259Z,20.4338
2023-05-21T10:27:33.148Z,20.4387
2023-05-21T10:28:34.946Z,20.4422
2023-05-21T10:29:36.797Z,20.4260
2023-05-21T10:30:38.862Z,20.4126
2023-05-21T10:31:40.451Z,20.4543
2023-05-21T10:32:42.358Z,20.4551
2023-05-21T10:33:44.129Z,20.4502
2023-05-21T10:34:45.976Z,20.4701
2023-05-21T10:35:47.799Z,20.4636
2023-05-21T10:36:49.607Z,20.4701
2023-05-21T10:37:51.443Z,20.4627
2023-05-21T10:38:53.334Z,20.4812
2023-05-21T10:39:55.141Z,20.4814
2023-05-21T10:40:56.955Z,20.4664
2023-05-21T10:41:59.309Z,20.4701
2023-05-21T10:43:00.622Z,20.4613
2023-05-21T10:44:02.448Z,20.4942
2023-05-21T10:45:04.355Z,20.5022
2023-05-21T10:46:06.200Z,20.5262
2023-05-21T10:47:07.972Z,20.5192
2023-05-21T10:48:09.832Z,20.5065
2023-05-21T10:49:11.637Z,20.5186
2023-05-21T10:50:13.473Z,20.5422
2023-05-21T10:51:15.288Z,20.5231
2023-05-21T10:52:17.122Z,20.5237
2023-05-21T10:53:18.975Z,20.5094
2023-05-21T10:54:20.805Z,20.5139
2023-05-21T10:55:22.693Z,20.5342
2023-05-21T10:56:24.461Z,20.5379
2023-05-21T10:57:26.319Z,20.5223
2023-05-21T10:58:30.048Z,20.5285
2023-05-21T10:59:29.982Z,20.5363
2023-05-21T11:00:31.833Z,20.5089
2023-05-21T11:01:33.686Z,20.5313
2023-05-21T11:02:43.124Z,20.5424
2023-05-21T11:03:38.092Z,20.5427
2023-05-21T11:04:39.143Z,20.5525
2023-05-21T11:05:40.988Z,20.5309
2023-05-21T11:06:42.810Z,20.5336
2023-05-21T11:07:44.661Z,20.5233
2023-05-21T11:08:46.480Z,20.5402
2023-05-21T11:09:48.326Z,20.5482
2023-05-21T11:10:50.159Z,20.5574
2023-05-21T11:11:51.988Z,20.5712
2023-05-21T11:12:53.804Z,20.5697
2023-05-21T11:13:55.656Z,20.5821
2023-05-21T11:14:57.487Z,20.5636
2023-05-21T11:15:59.409Z,20.5556
2023-05-21T11:17:01.219Z,20.5683
2023-05-21T11:18:03.029Z,20.5630
2023-05-21T11:19:04.854Z,20.5461
2023-05-21T11:20:06.628Z,20.5543
2023-05-21T11:21:08.473Z,20.5319
2023-05-21T11:22:10.322Z,20.5400
2023-05-21T11:23:12.130Z,20.5449
2023-05-21T11:24:13.974Z,20.5525
2023-05-21T11:25:15.797Z,20.5669
2023-05-21T11:26:17.635Z,20.5552
2023-05-21T11:27:19.491Z,20.5537
2023-05-21T11:28:21.291Z,20.5554
2023-05-21T11:29:23.128Z,20.5463
2023-05-21T11:30:24.959Z,20.5502
2023-05-21T11:31:26.939Z,20.5414
2023-05-21T11:32:28.746Z,20.5548
2023-05-21T11:33:30.465Z,20.5381
2023-05-21T11:34:32.291Z,20.5258
2023-05-21T11:35:34.138Z,20.5472
2023-05-21T11:36:36.230Z,20.5412
2023-05-21T11:37:37.887Z,20.5309
2023-05-21T11:38:39.760Z,20.5313
2023-05-21T11:39:41.550Z,20.5338
2023-05-21T11:40:43.372Z,20.5137
2023-05-21T11:41:45.259Z,20.5106
2023-05-21T11:42:47.069Z,20.5256
2023-05-21T11:43:48.916Z,20.5112
2023-05-21T11:44:50.736Z,20.5122
2023-05-21T11:45:52.564Z,20.5073
2023-05-21T11:46:54.427Z,20.5141
2023-05-21T11:47:56.336Z,20.4728
2023-05-21T11:48:58.101Z,20.4720
2023-05-21T11:49:59.926Z,20.5024
2023-05-21T11:51:01.735Z,20.5018
2023-05-21T11:52:03.632Z,20.5040
2023-05-21T11:53:05.409Z,20.5005
2023-05-21T11:54:07.240Z,20.4831
2023-05-21T11:55:16.600Z,20.4806
2023-05-21T11:56:10.918Z,20.4913
2023-05-21T11:57:12.759Z,20.5075
2023-05-21T11:58:14.581Z,20.5194
2023-05-21T11:59:18.705Z,20.5280
2023-05-21T12:00:18.275Z,20.5161
2023-05-21T12:01:20.098Z,20.5289
2023-05-21T12:02:21.976Z,20.5250
2023-05-21T12:03:23.859Z,20.5346
2023-05-21T12:04:25.595Z,20.5420
2023-05-21T12:05:27.453Z,20.5336
2023-05-21T12:06:29.374Z,20.5656
2023-05-21T12:07:31.253Z,20.5658
2023-05-21T12:08:32.919Z,20.5550
2023-05-21T12:09:34.796Z,20.5529
2023-05-21T12:10:36.747Z,20.4872
2023-05-21T12:11:38.416Z,20.4939
2023-05-21T12:12:53.229Z,20.5517
2023-05-21T12:13:45.305Z,20.5753
2023-05-21T12:14:45.813Z,20.5632
2023-05-21T12:15:47.366Z,20.5435
2023-05-21T12:16:48.947Z,20.5402
2023-05-21T12:17:50.534Z,20.5630
2023-05-21T12:18:52.075Z,20.5745
2023-05-21T12:19:53.626Z,20.5720
2023-05-21T12:20:55.147Z,20.5749
2023-05-21T12:21:56.756Z,20.5244
2023-05-21T12:22:58.636Z,20.5430
2023-05-21T12:24:00.441Z,20.5778
2023-05-21T12:25:02.276Z,20.5712
2023-05-21T12:26:04.118Z,20.5878
2023-05-21T12:27:05.929Z,20.5956